createdAt,value
2022-12-13T00:01:54.200Z,31.93
2022-12-13T00:04:23.363Z,30.33
2022-12-13T00:06:53.792Z,29.37
2022-12-13T00:09:21.959Z,29.00
2022-12-13T00:11:50.656Z,30.17
2022-12-13T00:14:18.814Z,28.20
2022-12-13T00:16:48.838Z,28.97
2022-12-13T00:19:17.535Z,31.73
2022-12-13T00:21:45.850Z,33.13
2022-12-13T00:24:14.668Z,26.37
2022-12-13T00:26:42.846Z,27.40
2022-12-13T00:29:12.349Z,27.53
2022-12-13T00:34:30.906Z,27.93
2022-12-13T00:36:59.967Z,27.23
2022-12-13T00:39:28.323Z,27.57
2022-12-13T00:41:56.497Z,28.17
2022-12-13T00:44:24.663Z,26.73
2022-12-13T00:46:53.210Z,26.47
2022-12-13T00:49:21.503Z,26.87
2022-12-13T00:51:50.993Z,26.53
2022-12-13T00:54:19.412Z,26.00
2022-12-13T00:56:47.697Z,28.07
2022-12-13T00:59:16.750Z,26.97
2022-12-13T01:01:45.166Z,27.67
2022-12-13T01:04:13.418Z,27.27
2022-12-13T01:06:42.810Z,28.27
2022-12-13T01:09:17.046Z,25.37
2022-12-13T01:11:45.245Z,28.97
2022-12-13T01:14:13.632Z,25.20
2022-12-13T01:16:41.860Z,25.70
2022-12-13T01:19:10.030Z,26.93
2022-12-13T01:21:38.269Z,24.27
2022-12-13T01:24:07.386Z,26.23
2022-12-13T01:26:36.963Z,27.17
2022-12-13T01:29:05.784Z,30.30
2022-12-13T01:31:34.186Z,26.90
2022-12-13T01:34:10.686Z,23.70
2022-12-13T01:36:39.014Z,26.90
2022-12-13T01:39:07.757Z,27.67
2022-12-13T01:41:44.608Z,28.53
2022-12-13T01:44:27.617Z,25.07
2022-12-13T01:46:55.796Z,26.37
2022-12-13T01:49:24.071Z,25.50
2022-12-13T01:51:53.740Z,29.50
2022-12-13T01:54:23.793Z,26.77
2022-12-13T01:57:00.547Z,24.53
2022-12-13T01:59:29.641Z,28.40
2022-12-13T02:02:01.010Z,25.53
2022-12-13T02:04:32.113Z,27.57
2022-12-13T02:07:00.592Z,28.27
2022-12-13T02:09:28.816Z,23.20
2022-12-13T02:11:59.079Z,25.97
2022-12-13T02:14:27.202Z,27.37
2022-12-13T02:16:58.773Z,26.67
2022-12-13T02:19:44.270Z,28.07
2022-12-13T02:22:21.664Z,26.37
2022-12-13T02:24:55.827Z,25.83
2022-12-13T02:27:45.121Z,28.17
2022-12-13T02:30:29.307Z,23.23
2022-12-13T02:33:10.130Z,25.50
2022-12-13T02:35:41.147Z,25.23
2022-12-13T02:38:13.139Z,23.77
2022-12-13T02:40:43.440Z,24.07
2022-12-13T02:43:15.252Z,24.07
2022-12-13T02:45:51.293Z,26.07
2022-12-13T02:48:21.353Z,23.00
2022-12-13T02:50:50.168Z,26.00
2022-12-13T02:53:18.682Z,25.23
2022-12-13T02:55:47.032Z,23.83
2022-12-13T02:58:15.826Z,22.33
2022-12-13T03:00:48.293Z,26.27
2022-12-13T03:03:24.604Z,28.30
2022-12-13T03:06:13.559Z,25.53
2022-12-13T03:08:47.053Z,22.00
2022-12-13T03:11:16.680Z,22.40
2022-12-13T03:13:48.972Z,24.53
2022-12-13T03:16:23.634Z,26.77
2022-12-13T03:18:54.132Z,24.50
2022-12-13T03:21:22.359Z,24.87
2022-12-13T03:23:50.578Z,24.23
2022-12-13T03:26:20.049Z,26.93
2022-12-13T03:28:48.422Z,24.30
2022-12-13T03:31:16.766Z,26.17
2022-12-13T03:33:44.942Z,24.60
2022-12-13T03:36:14.851Z,26.10
2022-12-13T03:38:43.299Z,24.67
2022-12-13T03:41:14.671Z,24.43
2022-12-13T03:43:43.270Z,25.13
2022-12-13T03:46:11.905Z,23.37
2022-12-13T03:48:40.252Z,22.10
2022-12-13T03:51:08.426Z,25.63
2022-12-13T03:53:37.985Z,25.47
2022-12-13T03:56:07.203Z,21.73
2022-12-13T03:58:38.088Z,25.87
2022-12-13T04:01:07.669Z,26.00
2022-12-13T04:03:35.937Z,22.70
2022-12-13T04:06:04.089Z,22.30
2022-12-13T04:08:32.428Z,24.50
2022-12-13T04:11:22.631Z,25.50
2022-12-13T04:13:49.841Z,23.63
2022-12-13T04:16:18.156Z,27.83
2022-12-13T04:18:46.389Z,23.67
2022-12-13T04:21:14.590Z,25.67
2022-12-13T04:23:42.727Z,25.10
2022-12-13T04:26:12.206Z,25.43
2022-12-13T04:28:40.375Z,27.23
2022-12-13T04:31:08.711Z,23.73
2022-12-13T04:33:36.955Z,22.03
2022-12-13T04:36:05.582Z,25.60
2022-12-13T04:38:33.879Z,26.07
2022-12-13T04:41:08.777Z,23.13
2022-12-13T04:43:38.272Z,20.13
2022-12-13T04:46:06.488Z,24.67
2022-12-13T04:48:34.755Z,22.80
2022-12-13T04:51:03.306Z,23.17
2022-12-13T04:53:31.810Z,25.57
2022-12-13T04:56:00.120Z,25.57
2022-12-13T04:58:29.018Z,23.33
2022-12-13T05:00:58.576Z,24.67
2022-12-13T05:03:27.833Z,25.60
2022-12-13T05:05:56.883Z,27.90
2022-12-13T05:08:25.086Z,23.93
2022-12-13T05:10:53.256Z,30.33
2022-12-13T05:13:21.457Z,24.70
2022-12-13T05:15:55.975Z,26.07
2022-12-13T05:18:25.695Z,24.30
2022-12-13T05:20:53.958Z,27.60
2022-12-13T05:23:23.068Z,23.10
2022-12-13T05:25:51.377Z,26.83
2022-12-13T05:28:27.678Z,24.60
2022-12-13T05:30:57.838Z,22.87
2022-12-13T05:33:27.850Z,26.07
2022-12-13T05:36:00.505Z,28.70
2022-12-13T05:38:30.613Z,24.50
2022-12-13T05:40:59.142Z,25.43
2022-12-13T05:43:42.242Z,22.73
2022-12-13T05:46:11.732Z,25.77
2022-12-13T05:48:41.398Z,21.67
2022-12-13T05:51:11.600Z,23.00
2022-12-13T05:53:40.890Z,26.07
2022-12-13T05:56:09.468Z,25.70
2022-12-13T05:58:38.284Z,25.70
2022-12-13T06:01:07.829Z,24.87
2022-12-13T06:03:36.194Z,26.30
2022-12-13T06:06:06.393Z,26.07
2022-12-13T06:08:34.648Z,28.17
2022-12-13T06:11:11.680Z,23.93
2022-12-13T06:13:42.344Z,26.70
2022-12-13T06:16:21.855Z,29.93
2022-12-13T06:18:51.020Z,24.57
2022-12-13T06:21:21.426Z,28.60
2022-12-13T06:23:49.534Z,24.63
2022-12-13T06:26:17.722Z,24.07
2022-12-13T06:28:45.885Z,26.13
2022-12-13T06:31:14.080Z,24.47
2022-12-13T06:33:42.266Z,28.83
2022-12-13T06:36:10.766Z,26.63
2022-12-13T06:38:43.417Z,26.80
2022-12-13T06:41:12.782Z,28.23
2022-12-13T06:43:43.671Z,24.43
2022-12-13T06:46:12.293Z,24.53
2022-12-13T06:48:41.505Z,27.73
2022-12-13T06:51:10.129Z,28.60
2022-12-13T06:53:41.062Z,26.53
2022-12-13T06:56:10.273Z,26.40
2022-12-13T06:58:38.454Z,24.77
2022-12-13T07:01:14.904Z,25.20
2022-12-13T07:03:52.514Z,28.20
2022-12-13T07:06:21.798Z,25.87
2022-12-13T07:08:52.482Z,29.00
2022-12-13T07:11:22.945Z,25.23
2022-12-13T07:13:51.110Z,25.53
2022-12-13T07:16:19.327Z,25.47
2022-12-13T07:18:47.572Z,25.23
2022-12-13T07:21:21.336Z,27.40
2022-12-13T07:23:55.450Z,23.60
2022-12-13T07:26:24.174Z,26.37
2022-12-13T07:28:55.391Z,23.00
2022-12-13T07:31:24.178Z,24.97
2022-12-13T07:33:52.524Z,24.67
2022-12-13T07:36:22.105Z,23.60
2022-12-13T07:38:53.745Z,27.80
2022-12-13T07:41:23.240Z,25.23
2022-12-13T07:43:54.818Z,24.20
2022-12-13T07:46:31.830Z,23.10
2022-12-13T07:49:03.450Z,27.87
2022-12-13T07:51:31.671Z,24.70
2022-12-13T07:54:01.129Z,25.80
2022-12-13T07:56:34.883Z,28.17
2022-12-13T07:59:03.307Z,25.20
2022-12-13T08:01:34.549Z,26.53
2022-12-13T08:04:03.132Z,25.07
2022-12-13T08:06:31.250Z,28.40
2022-12-13T08:09:00.763Z,25.60
2022-12-13T08:11:28.913Z,28.93
2022-12-13T08:13:57.137Z,27.00
2022-12-13T08:16:27.973Z,25.83
2022-12-13T08:19:02.970Z,32.53
2022-12-13T08:24:25.493Z,28.63
2022-12-13T08:26:53.909Z,26.97
2022-12-13T08:29:22.869Z,26.87
2022-12-13T08:32:02.217Z,29.50
2022-12-13T08:34:31.704Z,28.03
2022-12-13T08:37:01.795Z,27.63
2022-12-13T08:39:34.182Z,27.33
2022-12-13T08:42:16.250Z,25.77
2022-12-13T08:44:46.143Z,27.60
2022-12-13T08:47:23.544Z,29.13
2022-12-13T08:49:54.007Z,26.00
2022-12-13T08:52:23.129Z,29.50
2022-12-13T08:54:52.708Z,28.30
2022-12-13T08:57:20.838Z,30.57
2022-12-13T08:59:48.981Z,26.87
2022-12-13T09:02:17.503Z,27.73
2022-12-13T09:04:45.667Z,27.63
2022-12-13T09:07:13.873Z,31.00
2022-12-13T09:09:42.050Z,28.63
2022-12-13T09:12:30.266Z,31.53
2022-12-13T09:15:01.198Z,29.73
2022-12-13T09:17:36.676Z,29.33
2022-12-13T09:20:10.133Z,28.77
2022-12-13T09:23:01.922Z,26.83
2022-12-13T09:25:37.180Z,27.83
2022-12-13T09:28:08.270Z,27.87
2022-12-13T09:30:36.500Z,29.70
2022-12-13T09:33:18.165Z,25.47
2022-12-13T09:35:53.011Z,28.93
2022-12-13T09:38:21.439Z,29.37
2022-12-13T09:40:58.326Z,27.73
2022-12-13T09:43:42.741Z,26.27
2022-12-13T09:46:22.936Z,26.33
2022-12-13T09:48:52.317Z,27.93
2022-12-13T09:51:27.224Z,28.07
2022-12-13T09:53:58.339Z,25.93
2022-12-13T09:56:26.470Z,27.10
2022-12-13T09:58:56.945Z,28.23
2022-12-13T10:01:25.367Z,30.30
2022-12-13T10:03:54.213Z,29.20
2022-12-13T10:06:23.972Z,29.47
2022-12-13T10:08:57.549Z,29.73
2022-12-13T10:11:31.973Z,28.90
2022-12-13T10:14:05.042Z,27.80
2022-12-13T10:16:39.874Z,27.00
2022-12-13T10:19:28.465Z,30.00
2022-12-13T10:22:01.887Z,25.53
2022-12-13T10:24:36.946Z,28.13
2022-12-13T10:27:12.982Z,29.93
2022-12-13T10:29:56.006Z,26.87
2022-12-13T10:32:25.544Z,28.53
2022-12-13T10:34:55.297Z,27.93
2022-12-13T10:37:28.892Z,26.43
2022-12-13T10:39:56.999Z,27.80
2022-12-13T10:42:30.500Z,28.70
2022-12-13T10:45:11.234Z,28.07
2022-12-13T10:47:43.484Z,27.37
2022-12-13T10:50:21.467Z,28.07
2022-12-13T10:52:49.678Z,29.83
2022-12-13T10:55:26.379Z,25.93
2022-12-13T10:57:55.348Z,28.33
2022-12-13T11:00:37.706Z,30.20
2022-12-13T11:03:07.815Z,28.67
2022-12-13T11:05:37.820Z,32.10
2022-12-13T11:08:15.777Z,29.37
2022-12-13T11:10:44.351Z,27.27
2022-12-13T11:13:24.147Z,26.80
2022-12-13T11:15:55.645Z,28.63
2022-12-13T11:18:27.337Z,27.73
2022-12-13T11:20:57.408Z,26.57
2022-12-13T11:23:29.111Z,27.77
2022-12-13T11:25:58.443Z,28.50
2022-12-13T11:28:34.649Z,26.87
2022-12-13T11:31:09.293Z,27.50
2022-12-13T11:33:48.167Z,26.73
2022-12-13T11:36:23.138Z,25.97
2022-12-13T11:38:58.688Z,26.13
2022-12-13T11:41:31.552Z,27.50
2022-12-13T11:44:03.976Z,27.47
2022-12-13T11:46:38.482Z,26.67
2022-12-13T11:49:11.728Z,25.70
2022-12-13T11:51:43.389Z,25.53
2022-12-13T11:54:23.817Z,25.50
2022-12-13T11:57:00.037Z,26.27
2022-12-13T11:59:39.672Z,30.20
2022-12-13T12:02:16.956Z,26.70
2022-12-13T12:04:54.898Z,26.20
2022-12-13T12:07:33.791Z,29.90
2022-12-13T12:10:06.868Z,23.90
2022-12-13T12:12:36.369Z,25.80
2022-12-13T12:15:16.185Z,26.87
2022-12-13T12:17:45.136Z,26.67
2022-12-13T12:20:23.556Z,27.83
2022-12-13T12:22:57.797Z,26.50
2022-12-13T12:25:33.276Z,26.83
2022-12-13T12:28:06.402Z,29.70
2022-12-13T12:30:42.241Z,29.00
2022-12-13T12:33:13.557Z,27.43
2022-12-13T12:35:51.328Z,26.93
2022-12-13T12:38:37.237Z,25.77
2022-12-13T12:41:16.694Z,25.57
2022-12-13T12:43:46.557Z,25.47
2022-12-13T12:46:26.182Z,30.47
2022-12-13T12:49:11.424Z,27.13
2022-12-13T12:51:47.013Z,28.20
2022-12-13T12:54:27.448Z,28.50
2022-12-13T12:57:04.820Z,26.73
2022-12-13T12:59:37.650Z,25.57
2022-12-13T13:02:08.823Z,27.37
2022-12-13T13:04:42.294Z,28.77
2022-12-13T13:07:22.543Z,26.60
2022-12-13T13:09:54.673Z,25.80
2022-12-13T13:12:28.807Z,28.57
2022-12-13T13:14:58.739Z,27.77
2022-12-13T13:17:45.472Z,28.67
2022-12-13T13:20:18.220Z,29.57
2022-12-13T13:23:04.000Z,29.13
2022-12-13T13:25:53.935Z,28.43
2022-12-13T13:28:24.917Z,30.23
2022-12-13T13:31:03.968Z,29.87
2022-12-13T13:33:43.891Z,28.50
2022-12-13T13:36:32.318Z,29.10
2022-12-13T13:39:02.032Z,27.37
2022-12-13T13:41:43.248Z,31.43
2022-12-13T13:44:30.246Z,30.73
2022-12-13T13:47:14.218Z,28.53
2022-12-13T13:49:44.851Z,31.07
2022-12-13T13:52:27.302Z,30.93
2022-12-13T13:55:14.246Z,29.90
2022-12-13T13:58:10.664Z,30.67
2022-12-13T14:00:47.070Z,29.70
2022-12-13T14:03:43.137Z,30.93
2022-12-13T14:06:38.870Z,30.37
2022-12-13T14:09:25.376Z,30.70
2022-12-13T14:12:12.445Z,26.93
2022-12-13T14:15:03.878Z,27.73
2022-12-13T14:17:54.825Z,30.47
2022-12-13T14:20:40.700Z,29.17
2022-12-13T14:23:12.563Z,27.07
2022-12-13T14:25:52.629Z,31.33
2022-12-13T14:28:26.461Z,31.13
2022-12-13T14:30:57.616Z,29.20
2022-12-13T14:33:27.652Z,29.83
2022-12-13T14:35:57.079Z,30.90
2022-12-13T14:38:27.029Z,30.53
2022-12-13T14:40:56.457Z,29.97
2022-12-13T14:43:25.469Z,30.57
2022-12-13T14:45:57.348Z,31.93
2022-12-13T14:48:28.437Z,29.40
2022-12-13T14:50:57.806Z,32.80
2022-12-13T14:53:28.098Z,30.83
2022-12-13T14:56:06.984Z,31.43
2022-12-13T14:58:36.936Z,29.03
2022-12-13T15:01:06.810Z,33.27
2022-12-13T15:03:36.618Z,30.77
2022-12-13T15:06:05.325Z,32.53
2022-12-13T15:08:34.146Z,30.10
2022-12-13T15:11:08.128Z,29.40
2022-12-13T15:13:39.960Z,29.70
2022-12-13T15:16:11.350Z,31.20
2022-12-13T15:18:39.852Z,33.73
2022-12-13T15:21:19.120Z,29.90
2022-12-13T15:23:49.161Z,32.67
2022-12-13T15:26:28.712Z,30.93
2022-12-13T15:28:58.796Z,31.23
2022-12-13T15:31:28.896Z,32.87
2022-12-13T15:34:28.280Z,31.70
2022-12-13T15:37:01.076Z,31.53
2022-12-13T15:39:30.933Z,31.00
2022-12-13T15:41:59.119Z,31.10
2022-12-13T15:44:28.917Z,32.43
2022-12-13T15:47:00.745Z,31.50
2022-12-13T15:49:31.937Z,30.80
2022-12-13T15:52:01.852Z,28.40
2022-12-13T15:54:30.089Z,32.53
2022-12-13T15:57:02.706Z,29.93
2022-12-13T15:59:32.009Z,30.40
2022-12-13T16:02:01.619Z,32.73
2022-12-13T16:04:32.603Z,34.30
2022-12-13T16:07:01.389Z,33.90
2022-12-13T16:09:31.473Z,34.40
2022-12-13T16:12:01.919Z,35.77
2022-12-13T16:14:48.872Z,34.00
2022-12-13T16:17:24.316Z,31.60
2022-12-13T16:19:52.787Z,32.10
2022-12-13T16:22:23.604Z,29.20
2022-12-13T16:24:51.877Z,30.77
2022-12-13T16:27:20.149Z,31.67
2022-12-13T16:29:48.352Z,31.13
2022-12-13T16:32:16.637Z,32.60
2022-12-13T16:34:46.220Z,30.57
2022-12-13T16:37:25.492Z,31.67
2022-12-13T16:39:55.103Z,32.47
2022-12-13T16:42:26.087Z,30.50
2022-12-13T16:45:17.866Z,32.20
2022-12-13T16:47:48.474Z,32.27
2022-12-13T16:50:19.944Z,34.87
2022-12-13T16:52:48.412Z,31.13
2022-12-13T16:55:16.999Z,31.50
2022-12-13T16:57:45.149Z,35.50
2022-12-13T17:00:14.282Z,32.07
2022-12-13T17:02:42.559Z,31.87
2022-12-13T17:05:10.908Z,31.42
2022-12-13T17:07:40.404Z,32.07
2022-12-13T17:10:09.713Z,30.47
2022-12-13T17:12:37.857Z,36.00
2022-12-13T17:15:06.474Z,31.27
2022-12-13T17:17:34.649Z,34.17
2022-12-13T17:20:04.072Z,31.97
2022-12-13T17:22:32.249Z,34.13
2022-12-13T17:25:01.832Z,38.73
2022-12-13T17:27:30.039Z,35.47
2022-12-13T17:29:58.328Z,37.30
2022-12-13T17:32:26.620Z,35.10
2022-12-13T17:34:54.775Z,34.93
2022-12-13T17:37:22.943Z,35.70
2022-12-13T17:39:51.148Z,36.37
2022-12-13T17:42:20.703Z,34.00
2022-12-13T17:44:48.899Z,34.67
2022-12-13T17:47:17.099Z,37.07
2022-12-13T17:49:45.324Z,34.67
2022-12-13T17:52:13.562Z,31.30
2022-12-13T17:54:41.734Z,33.33
2022-12-13T17:57:11.689Z,37.00
2022-12-13T17:59:43.155Z,33.83
2022-12-13T18:02:12.877Z,35.43
2022-12-13T18:04:42.281Z,36.90
2022-12-13T18:07:10.459Z,36.87
2022-12-13T18:09:38.665Z,40.00
2022-12-13T18:12:08.327Z,36.37
2022-12-13T18:14:36.640Z,36.27
2022-12-13T18:17:06.553Z,35.83
2022-12-13T18:19:34.747Z,36.27
2022-12-13T18:22:02.992Z,34.60
2022-12-13T18:24:31.166Z,35.30
2022-12-13T18:26:59.443Z,37.77
2022-12-13T18:29:27.674Z,36.60
2022-12-13T18:31:55.805Z,35.33
2022-12-13T18:34:25.818Z,34.33
2022-12-13T18:36:54.032Z,36.60
2022-12-13T18:39:22.303Z,33.50
2022-12-13T18:41:50.479Z,37.33
2022-12-13T18:44:18.661Z,39.43
2022-12-13T18:46:47.597Z,38.27
2022-12-13T18:49:15.945Z,35.00
2022-12-13T18:51:45.435Z,35.67
2022-12-13T18:54:14.036Z,34.87
2022-12-13T18:56:42.209Z,35.10
2022-12-13T18:59:11.788Z,36.07
2022-12-13T19:01:40.004Z,37.40
2022-12-13T19:04:08.173Z,34.87
2022-12-13T19:06:36.285Z,34.77
2022-12-13T19:09:06.930Z,36.63
2022-12-13T19:11:35.098Z,37.33
2022-12-13T19:14:03.264Z,38.20
2022-12-13T19:16:31.586Z,39.20
2022-12-13T19:19:00.013Z,34.70
2022-12-13T19:21:28.364Z,33.73
2022-12-13T19:23:58.005Z,37.80
2022-12-13T19:26:28.267Z,35.27
2022-12-13T19:28:57.328Z,34.33
2022-12-13T19:31:30.348Z,32.43
2022-12-13T19:33:59.832Z,33.30
2022-12-13T19:36:28.017Z,35.77
2022-12-13T19:38:56.879Z,35.70
2022-12-13T19:41:25.696Z,34.40
2022-12-13T19:43:55.410Z,32.23
2022-12-13T19:46:23.727Z,32.17
2022-12-13T19:48:51.999Z,35.73
2022-12-13T19:51:21.468Z,32.23
2022-12-13T19:53:49.774Z,35.20
2022-12-13T19:56:19.834Z,34.17
2022-12-13T19:58:49.079Z,32.27
2022-12-13T20:01:19.079Z,34.20
2022-12-13T20:03:47.561Z,30.50
2022-12-13T20:06:17.058Z,32.27
2022-12-13T20:08:45.719Z,31.50
2022-12-13T20:11:14.920Z,32.63
2022-12-13T20:13:43.166Z,33.10
2022-12-13T20:16:16.237Z,31.60
2022-12-13T20:18:46.028Z,31.73
2022-12-13T20:21:15.497Z,30.57
2022-12-13T20:23:44.904Z,34.57
2022-12-13T20:26:33.267Z,31.33
2022-12-13T20:29:01.883Z,30.67
2022-12-13T20:31:30.818Z,30.83
2022-12-13T20:34:01.680Z,33.60
2022-12-13T20:36:31.369Z,34.77
2022-12-13T20:39:00.397Z,32.20
2022-12-13T20:41:29.308Z,31.70
2022-12-13T20:43:58.049Z,29.33
2022-12-13T20:46:27.333Z,30.50
2022-12-13T20:48:56.448Z,33.00
2022-12-13T20:51:28.415Z,29.53
2022-12-13T20:53:56.974Z,31.77
2022-12-13T20:56:26.857Z,32.93
2022-12-13T20:58:55.056Z,32.40
2022-12-13T21:01:24.215Z,30.57
2022-12-13T21:03:54.666Z,30.20
2022-12-13T21:06:22.832Z,33.77
2022-12-13T21:08:52.489Z,31.07
2022-12-13T21:11:26.657Z,30.07
2022-12-13T21:13:56.088Z,31.77
2022-12-13T21:16:24.769Z,31.23
2022-12-13T21:18:54.118Z,28.40
2022-12-13T21:21:22.320Z,29.80
2022-12-13T21:23:51.846Z,27.93
2022-12-13T21:26:22.810Z,28.43
2022-12-13T21:28:53.572Z,28.03
2022-12-13T21:31:24.943Z,31.00
2022-12-13T21:33:54.641Z,29.27
2022-12-13T21:36:24.148Z,27.87
2022-12-13T21:38:55.701Z,29.73
2022-12-13T21:41:24.199Z,28.10
2022-12-13T21:43:52.852Z,30.10
2022-12-13T21:46:21.575Z,27.67
2022-12-13T21:48:50.429Z,28.13
2022-12-13T21:51:19.331Z,29.20
2022-12-13T21:53:47.630Z,25.93
2022-12-13T21:56:35.696Z,25.43
2022-12-13T21:59:19.012Z,28.53
2022-12-13T22:02:06.175Z,26.20
2022-12-13T22:04:35.111Z,27.97
2022-12-13T22:07:03.461Z,26.53
2022-12-13T22:09:32.813Z,25.63
2022-12-13T22:12:02.623Z,29.27
2022-12-13T22:14:30.763Z,29.83
2022-12-13T22:16:58.943Z,25.53
2022-12-13T22:19:27.047Z,26.70
2022-12-13T22:21:55.166Z,28.93
2022-12-13T22:24:23.289Z,25.80
2022-12-13T22:26:51.431Z,27.83
2022-12-13T22:29:20.924Z,25.73
2022-12-13T22:31:49.364Z,25.93
2022-12-13T22:34:18.085Z,26.27
2022-12-13T22:36:46.282Z,27.43
2022-12-13T22:39:16.634Z,26.43
2022-12-13T22:41:45.077Z,23.90
2022-12-13T22:44:13.678Z,28.67
2022-12-13T22:46:43.266Z,28.33
2022-12-13T22:49:12.483Z,25.57
2022-12-13T22:51:40.984Z,24.57
2022-12-13T22:54:09.674Z,25.67
2022-12-13T22:56:37.841Z,26.07
2022-12-13T22:59:08.165Z,25.53
2022-12-13T23:01:37.248Z,24.73
2022-12-13T23:04:07.110Z,25.93
2022-12-13T23:06:36.257Z,27.73
2022-12-13T23:09:06.003Z,22.30
2022-12-13T23:11:52.279Z,23.87
2022-12-13T23:14:21.140Z,23.30
2022-12-13T23:16:49.339Z,25.17
2022-12-13T23:22:08.643Z,28.70
2022-12-13T23:24:36.766Z,23.13
2022-12-13T23:27:05.009Z,22.07
2022-12-13T23:29:33.181Z,22.27
2022-12-13T23:32:01.355Z,24.27
2022-12-13T23:34:30.837Z,23.70
2022-12-13T23:36:58.991Z,25.40
2022-12-13T23:39:27.165Z,24.23
2022-12-13T23:41:55.332Z,24.17
2022-12-13T23:44:23.488Z,21.83
2022-12-13T23:46:51.627Z,23.93
2022-12-13T23:49:21.074Z,21.60
2022-12-13T23:51:50.635Z,25.53
2022-12-13T23:54:20.225Z,24.13
2022-12-13T23:56:48.576Z,22.67
2022-12-13T23:59:16.720Z,22.57
